createdAt,value
2017-06-17T00:00:30.877Z,0
2017-06-17T00:01:11.416Z,0
2017-06-17T00:01:51.980Z,0
2017-06-17T00:02:32.461Z,0
2017-06-17T00:03:12.960Z,0
2017-06-17T00:03:53.458Z,0
2017-06-17T00:04:33.920Z,0
2017-06-17T00:05:14.450Z,0
2017-06-17T00:05:54.910Z,0
2017-06-17T00:06:35.400Z,0
2017-06-17T00:07:15.887Z,0
2017-06-17T00:07:56.455Z,0
2017-06-17T00:08:36.886Z,0
2017-06-17T00:09:17.412Z,0
2017-06-17T00:09:57.892Z,0
2017-06-17T00:10:38.415Z,0
2017-06-17T00:11:18.919Z,0
2017-06-17T00:11:59.419Z,0
2017-06-17T00:12:39.955Z,0
2017-06-17T00:13:20.462Z,0
2017-06-17T00:14:00.948Z,0
2017-06-17T00:14:41.455Z,0
2017-06-17T00:15:21.972Z,0
2017-06-17T00:16:02.488Z,0
2017-06-17T00:16:42.956Z,0
2017-06-17T00:17:23.436Z,0
2017-06-17T00:18:03.974Z,0
2017-06-17T00:18:44.450Z,0
2017-06-17T00:19:24.911Z,0
2017-06-17T00:20:05.468Z,0
2017-06-17T00:20:45.955Z,0
2017-06-17T00:21:26.469Z,0
2017-06-17T00:22:06.951Z,0
2017-06-17T00:22:47.456Z,0
2017-06-17T00:23:27.907Z,0
2017-06-17T00:24:08.423Z,0
2017-06-17T00:24:48.949Z,0
2017-06-17T00:25:29.442Z,0
2017-06-17T00:26:09.978Z,0
2017-06-17T00:26:50.538Z,0
2017-06-17T00:27:31.048Z,0
2017-06-17T00:28:11.647Z,0
2017-06-17T00:28:52.107Z,0
2017-06-17T00:29:32.629Z,0
2017-06-17T00:30:13.112Z,0
2017-06-17T00:30:53.658Z,0
2017-06-17T00:31:34.147Z,0
2017-06-17T00:32:14.621Z,0
2017-06-17T00:32:55.131Z,0
2017-06-17T00:33:35.601Z,0
2017-06-17T00:34:16.097Z,0
2017-06-17T00:34:56.607Z,0
2017-06-17T00:35:37.119Z,0
2017-06-17T00:36:17.593Z,0
2017-06-17T00:36:58.064Z,0
2017-06-17T00:37:38.577Z,0
2017-06-17T00:38:19.086Z,0
2017-06-17T00:38:59.532Z,0
2017-06-17T00:39:40.075Z,0
2017-06-17T00:40:20.512Z,0
2017-06-17T00:41:01.068Z,0
2017-06-17T00:41:41.624Z,0
2017-06-17T00:42:22.095Z,0
2017-06-17T00:43:02.721Z,0
2017-06-17T00:45:01.014Z,0
2017-06-17T00:45:41.433Z,0
2017-06-17T00:46:21.927Z,0
2017-06-17T00:47:02.426Z,0
2017-06-17T00:47:42.916Z,0
2017-06-17T00:48:23.402Z,0
2017-06-17T00:49:03.940Z,0
2017-06-17T00:49:44.629Z,0
2017-06-17T00:50:25.141Z,0
2017-06-17T00:51:05.635Z,0
2017-06-17T00:51:46.154Z,0
2017-06-17T00:52:26.647Z,0
2017-06-17T00:53:07.170Z,0
2017-06-17T00:53:47.709Z,0
2017-06-17T00:54:28.142Z,0
2017-06-17T00:55:08.619Z,0
2017-06-17T00:55:49.092Z,0
2017-06-17T00:56:29.603Z,0
2017-06-17T00:57:10.096Z,0
2017-06-17T00:57:50.587Z,0
2017-06-17T00:58:31.140Z,0
2017-06-17T00:59:11.634Z,0
2017-06-17T00:59:52.111Z,0
2017-06-17T01:00:32.750Z,0
2017-06-17T01:01:13.191Z,0
2017-06-17T01:01:53.704Z,0
2017-06-17T01:02:34.258Z,0
2017-06-17T01:03:14.707Z,0
2017-06-17T01:03:55.171Z,0
2017-06-17T01:04:35.654Z,0
2017-06-17T01:05:16.201Z,0
2017-06-17T01:05:57.007Z,0
2017-06-17T01:06:37.541Z,0
2017-06-17T01:07:18.031Z,0
2017-06-17T01:07:58.513Z,0
2017-06-17T01:08:39.017Z,0
2017-06-17T01:09:19.544Z,0
2017-06-17T01:10:00.033Z,0
2017-06-17T01:10:40.519Z,0
2017-06-17T01:11:20.995Z,0
2017-06-17T01:12:01.543Z,0
2017-06-17T01:12:41.968Z,0
2017-06-17T01:13:22.523Z,0
2017-06-17T01:14:03.053Z,0
2017-06-17T01:14:43.544Z,0
2017-06-17T01:15:24.041Z,0
2017-06-17T01:16:04.557Z,0
2017-06-17T01:16:45.120Z,0
2017-06-17T01:17:25.602Z,0
2017-06-17T01:18:06.119Z,0
2017-06-17T01:18:46.602Z,0
2017-06-17T01:19:27.106Z,0
2017-06-17T01:20:07.587Z,0
2017-06-17T01:20:48.100Z,0
2017-06-17T01:21:28.600Z,0
2017-06-17T01:22:09.100Z,0
2017-06-17T01:22:49.614Z,0
2017-06-17T01:23:30.095Z,0
2017-06-17T01:24:10.588Z,0
2017-06-17T01:24:51.070Z,0
2017-06-17T01:25:31.557Z,0
2017-06-17T01:26:12.047Z,0
2017-06-17T01:26:52.555Z,0
2017-06-17T01:27:33.056Z,0
2017-06-17T01:28:13.528Z,0
2017-06-17T01:28:54.027Z,0
2017-06-17T01:29:34.538Z,0
2017-06-17T01:30:15.022Z,0
2017-06-17T01:30:55.542Z,0
2017-06-17T01:31:36.035Z,0
2017-06-17T01:32:16.543Z,0
2017-06-17T01:32:56.975Z,0
2017-06-17T01:33:37.494Z,0
2017-06-17T01:34:17.994Z,0
2017-06-17T01:34:58.506Z,0
2017-06-17T01:35:38.944Z,0
2017-06-17T01:36:19.475Z,0
2017-06-17T01:36:59.967Z,0
2017-06-17T01:37:40.440Z,0
2017-06-17T01:38:20.934Z,0
2017-06-17T01:39:01.448Z,0
2017-06-17T01:39:42.000Z,0
2017-06-17T01:40:22.466Z,0
2017-06-17T01:41:02.962Z,0
2017-06-17T01:41:43.488Z,0
2017-06-17T01:42:23.930Z,0
2017-06-17T01:43:04.442Z,0
2017-06-17T01:43:44.936Z,0
2017-06-17T01:44:25.449Z,0
2017-06-17T01:45:05.940Z,0
2017-06-17T01:45:46.521Z,0
2017-06-17T01:46:26.975Z,0
2017-06-17T01:47:07.469Z,0
2017-06-17T01:47:47.980Z,0
2017-06-17T01:48:28.481Z,0
2017-06-17T01:49:08.980Z,0
2017-06-17T01:49:49.484Z,0
2017-06-17T01:50:29.977Z,0
2017-06-17T01:51:10.482Z,0
2017-06-17T01:51:50.930Z,0
2017-06-17T01:52:31.438Z,0
2017-06-17T01:53:11.930Z,0
2017-06-17T01:53:52.426Z,0
2017-06-17T01:54:32.961Z,0
2017-06-17T01:55:13.430Z,0
2017-06-17T01:55:53.886Z,0
2017-06-17T01:56:34.423Z,0
2017-06-17T01:57:14.942Z,0
2017-06-17T01:57:55.480Z,0
2017-06-17T01:58:35.934Z,0
2017-06-17T01:59:16.453Z,0
2017-06-17T01:59:56.942Z,0
2017-06-17T02:00:37.468Z,0
2017-06-17T02:01:17.960Z,0
2017-06-17T02:01:58.469Z,0
2017-06-17T02:02:38.986Z,0
2017-06-17T02:03:19.486Z,0
2017-06-17T02:03:59.994Z,0
2017-06-17T02:04:40.487Z,0
2017-06-17T02:05:21.016Z,0
2017-06-17T02:06:01.524Z,0
2017-06-17T02:06:42.022Z,0
2017-06-17T02:07:22.529Z,0
2017-06-17T02:08:03.016Z,0
2017-06-17T02:08:43.528Z,0
2017-06-17T02:09:24.058Z,0
2017-06-17T02:10:04.578Z,0
2017-06-17T02:10:45.103Z,0
2017-06-17T02:11:25.584Z,0
2017-06-17T02:12:06.094Z,0
2017-06-17T02:12:46.648Z,0
2017-06-17T02:13:27.203Z,0
2017-06-17T02:14:07.678Z,0
2017-06-17T02:14:48.203Z,0
2017-06-17T02:15:28.722Z,0
2017-06-17T02:16:09.193Z,0
2017-06-17T02:16:49.675Z,0
2017-06-17T02:17:30.133Z,0
2017-06-17T02:18:10.630Z,0
2017-06-17T02:18:51.125Z,0
2017-06-17T02:19:31.645Z,0
2017-06-17T02:20:12.109Z,0
2017-06-17T02:20:52.657Z,0
2017-06-17T02:21:33.156Z,0
2017-06-17T02:22:13.652Z,0
2017-06-17T02:22:54.207Z,0
2017-06-17T02:23:34.649Z,0
2017-06-17T02:24:15.216Z,0
2017-06-17T02:24:55.692Z,0
2017-06-17T02:25:36.317Z,0
2017-06-17T02:26:16.832Z,0
2017-06-17T02:26:57.322Z,0
2017-06-17T02:27:37.856Z,0
2017-06-17T02:28:18.314Z,0
2017-06-17T02:28:58.852Z,0
2017-06-17T02:29:39.319Z,0
2017-06-17T02:30:19.811Z,0
2017-06-17T02:31:00.313Z,0
2017-06-17T02:31:40.779Z,0
2017-06-17T02:32:21.321Z,0
2017-06-17T02:33:01.826Z,0
2017-06-17T02:33:42.322Z,0
2017-06-17T02:34:22.866Z,0
2017-06-17T02:35:03.360Z,0
2017-06-17T02:35:43.874Z,0
2017-06-17T02:36:24.356Z,0
2017-06-17T02:37:04.862Z,0
2017-06-17T02:37:45.389Z,0
2017-06-17T02:38:25.860Z,0
2017-06-17T02:39:06.408Z,0
2017-06-17T02:39:46.933Z,0
2017-06-17T02:40:27.381Z,0
2017-06-17T02:41:07.920Z,0
2017-06-17T02:41:48.412Z,0
2017-06-17T02:42:28.912Z,0
2017-06-17T02:43:09.362Z,0
2017-06-17T02:43:49.876Z,0
2017-06-17T02:44:30.386Z,0
2017-06-17T02:45:10.912Z,0
2017-06-17T02:45:51.450Z,0
2017-06-17T02:46:31.887Z,0
2017-06-17T02:47:12.393Z,0
2017-06-17T02:47:52.911Z,0
2017-06-17T02:48:33.399Z,4
2017-06-17T02:49:13.867Z,4
2017-06-17T02:49:54.385Z,0
2017-06-17T02:50:34.844Z,0
2017-06-17T02:51:15.375Z,0
2017-06-17T02:51:55.861Z,4
2017-06-17T02:52:36.357Z,4
2017-06-17T02:53:16.893Z,4
2017-06-17T02:53:57.418Z,0
2017-06-17T02:54:37.860Z,4
2017-06-17T02:55:18.380Z,4
2017-06-17T02:55:58.869Z,4
2017-06-17T02:56:39.342Z,4
2017-06-17T02:57:19.871Z,4
2017-06-17T02:58:00.370Z,4
2017-06-17T02:58:40.819Z,4
2017-06-17T02:59:21.305Z,4
2017-06-17T03:00:01.841Z,8
2017-06-17T03:00:42.300Z,4
2017-06-17T03:01:22.874Z,8
2017-06-17T03:02:03.385Z,4
2017-06-17T03:02:43.878Z,8
2017-06-17T03:03:24.407Z,8
2017-06-17T03:04:04.909Z,8
2017-06-17T03:04:45.335Z,12
2017-06-17T03:05:25.840Z,8
2017-06-17T03:06:06.351Z,12
2017-06-17T03:06:46.857Z,12
2017-06-17T03:07:27.352Z,8
2017-06-17T03:08:07.814Z,12
2017-06-17T03:08:48.289Z,12
2017-06-17T03:09:28.799Z,16
2017-06-17T03:10:09.286Z,16
2017-06-17T03:10:49.786Z,16
2017-06-17T03:11:30.277Z,20
2017-06-17T03:12:10.769Z,20
2017-06-17T03:12:51.285Z,20
2017-06-17T03:13:31.833Z,20
2017-06-17T03:14:12.339Z,24
2017-06-17T03:14:52.810Z,24
2017-06-17T03:15:33.282Z,24
2017-06-17T03:16:13.821Z,24
2017-06-17T03:16:54.299Z,28
2017-06-17T03:17:34.836Z,32
2017-06-17T03:18:15.405Z,32
2017-06-17T03:18:55.847Z,32
2017-06-17T03:19:36.382Z,36
2017-06-17T03:20:16.850Z,36
2017-06-17T03:20:57.315Z,36
2017-06-17T03:21:37.832Z,40
2017-06-17T03:22:18.320Z,40
2017-06-17T03:22:58.830Z,44
2017-06-17T03:23:39.278Z,48
2017-06-17T03:24:19.864Z,48
2017-06-17T03:25:00.281Z,48
2017-06-17T03:25:40.830Z,52
2017-06-17T03:26:21.463Z,56
2017-06-17T03:27:01.935Z,56
2017-06-17T03:27:42.440Z,60
2017-06-17T03:28:22.955Z,64
2017-06-17T03:29:03.463Z,68
2017-06-17T03:29:44.000Z,68
2017-06-17T03:30:24.474Z,72
2017-06-17T03:31:04.997Z,76
2017-06-17T03:31:45.508Z,80
2017-06-17T03:32:25.949Z,84
2017-06-17T03:33:06.474Z,84
2017-06-17T03:33:46.972Z,88
2017-06-17T03:34:27.475Z,92
2017-06-17T03:35:08.011Z,96
2017-06-17T03:35:48.480Z,100
2017-06-17T03:36:28.983Z,104
2017-06-17T03:37:09.445Z,108
2017-06-17T03:37:49.967Z,112
2017-06-17T03:38:30.400Z,116
2017-06-17T03:39:10.918Z,120
2017-06-17T03:39:51.422Z,128
2017-06-17T03:40:31.878Z,132
2017-06-17T03:41:12.408Z,136
2017-06-17T03:41:52.910Z,140
2017-06-17T03:42:33.368Z,144
2017-06-17T03:43:13.913Z,152
2017-06-17T03:43:54.408Z,156
2017-06-17T03:44:34.918Z,160
2017-06-17T03:45:15.434Z,164
2017-06-17T03:45:55.964Z,172
2017-06-17T03:46:36.468Z,176
2017-06-17T03:47:17.003Z,184
2017-06-17T03:47:57.465Z,184
2017-06-17T03:48:37.923Z,192
2017-06-17T03:49:18.441Z,196
2017-06-17T03:49:58.935Z,204
2017-06-17T03:50:39.490Z,208
2017-06-17T03:51:19.933Z,216
2017-06-17T03:52:00.438Z,220
2017-06-17T03:52:40.992Z,228
2017-06-17T03:53:21.505Z,236
2017-06-17T03:54:01.957Z,240
2017-06-17T03:54:42.529Z,244
2017-06-17T03:55:22.968Z,252
2017-06-17T03:56:03.464Z,260
2017-06-17T03:56:43.949Z,268
2017-06-17T03:57:24.540Z,272
2017-06-17T03:58:04.989Z,280
2017-06-17T03:58:45.495Z,284
2017-06-17T03:59:25.970Z,296
2017-06-17T04:00:06.475Z,300
2017-06-17T04:00:46.982Z,312
2017-06-17T04:01:27.510Z,320
2017-06-17T04:02:07.989Z,324
2017-06-17T04:02:48.496Z,336
2017-06-17T04:03:29.020Z,364
2017-06-17T04:04:09.494Z,488
2017-06-17T04:04:49.977Z,544
2017-06-17T04:05:30.480Z,640
2017-06-17T04:06:10.971Z,700
2017-06-17T04:06:51.482Z,740
2017-06-17T04:07:31.928Z,752
2017-06-17T04:08:12.471Z,828
2017-06-17T04:08:52.948Z,888
2017-06-17T04:09:33.736Z,776
2017-06-17T04:10:14.262Z,584
2017-06-17T04:10:54.751Z,468
2017-06-17T04:11:35.261Z,432
2017-06-17T04:12:15.802Z,412
2017-06-17T04:12:56.256Z,416
2017-06-17T04:13:36.744Z,416
2017-06-17T04:14:17.206Z,412
2017-06-17T04:14:57.669Z,420
2017-06-17T04:15:38.154Z,424
2017-06-17T04:16:18.693Z,428
2017-06-17T04:16:59.277Z,432
2017-06-17T04:17:39.769Z,440
2017-06-17T04:18:20.288Z,444
2017-06-17T04:19:00.797Z,452
2017-06-17T04:19:41.243Z,456
2017-06-17T04:20:21.785Z,456
2017-06-17T04:21:02.250Z,464
2017-06-17T04:21:42.791Z,464
2017-06-17T04:22:23.271Z,468
2017-06-17T04:23:03.821Z,472
2017-06-17T04:23:44.310Z,476
2017-06-17T04:24:24.817Z,480
2017-06-17T04:25:05.292Z,488
2017-06-17T04:25:45.814Z,496
2017-06-17T04:26:26.319Z,508
2017-06-17T04:27:06.847Z,504
2017-06-17T04:27:47.348Z,504
2017-06-17T04:28:27.817Z,508
2017-06-17T04:29:08.291Z,516
2017-06-17T04:29:49.090Z,528
2017-06-17T04:30:29.538Z,544
2017-06-17T04:31:10.081Z,560
2017-06-17T04:31:50.555Z,576
2017-06-17T04:32:31.024Z,628
2017-06-17T04:33:11.522Z,756
2017-06-17T04:33:52.027Z,812
2017-06-17T04:34:32.470Z,764
2017-06-17T04:35:12.965Z,628
2017-06-17T04:35:53.504Z,568
2017-06-17T04:36:33.961Z,564
2017-06-17T04:37:14.456Z,580
2017-06-17T04:37:55.033Z,596
2017-06-17T04:38:35.460Z,640
2017-06-17T04:39:16.002Z,732
2017-06-17T04:39:56.437Z,1016
2017-06-17T04:40:36.941Z,1504
2017-06-17T04:41:17.593Z,2540
2017-06-17T04:41:58.096Z,5284
2017-06-17T04:42:38.577Z,8520
2017-06-17T04:43:19.104Z,11680
2017-06-17T04:43:59.553Z,11008
2017-06-17T04:44:40.078Z,10216
2017-06-17T04:45:20.560Z,8416
2017-06-17T04:46:01.092Z,5500
2017-06-17T04:46:41.562Z,2788
2017-06-17T04:47:22.091Z,1372
2017-06-17T04:48:02.594Z,804
2017-06-17T04:48:43.077Z,640
2017-06-17T04:49:23.584Z,640
2017-06-17T04:50:04.084Z,636
2017-06-17T04:50:44.610Z,660
2017-06-17T04:51:25.083Z,676
2017-06-17T04:52:05.595Z,712
2017-06-17T04:52:46.083Z,824
2017-06-17T04:53:26.559Z,880
2017-06-17T04:54:07.093Z,820
2017-06-17T04:54:47.557Z,844
2017-06-17T04:55:28.105Z,968
2017-06-17T04:56:08.649Z,1188
2017-06-17T04:56:49.281Z,856
2017-06-17T04:57:29.795Z,736
2017-06-17T04:58:10.278Z,640
2017-06-17T04:58:50.795Z,632
2017-06-17T04:59:31.291Z,608
2017-06-17T05:00:11.787Z,644
2017-06-17T05:00:52.306Z,716
2017-06-17T05:01:32.844Z,772
2017-06-17T05:02:13.342Z,780
2017-06-17T05:02:53.842Z,760
2017-06-17T05:03:34.332Z,796
2017-06-17T05:04:14.862Z,768
2017-06-17T05:04:55.346Z,740
2017-06-17T05:05:35.857Z,824
2017-06-17T05:06:16.366Z,800
2017-06-17T05:06:56.843Z,860
2017-06-17T05:07:37.291Z,1196
2017-06-17T05:08:17.824Z,1036
2017-06-17T05:08:58.318Z,716
2017-06-17T05:09:38.833Z,624
2017-06-17T05:10:19.537Z,816
2017-06-17T05:11:00.099Z,760
2017-06-17T05:11:40.608Z,760
2017-06-17T05:12:21.106Z,612
2017-06-17T05:13:01.601Z,728
2017-06-17T05:13:42.078Z,600
2017-06-17T05:14:22.600Z,624
2017-06-17T05:15:03.116Z,748
2017-06-17T05:15:43.779Z,1252
2017-06-17T05:16:24.237Z,2552
2017-06-17T05:17:04.729Z,4792
2017-06-17T05:17:45.215Z,3848
2017-06-17T05:18:25.716Z,3264
2017-06-17T05:19:06.198Z,1468
2017-06-17T05:19:46.715Z,1052
2017-06-17T05:20:27.196Z,1808
2017-06-17T05:21:07.707Z,1208
2017-06-17T05:21:48.195Z,1620
2017-06-17T05:22:29.611Z,780
2017-06-17T05:23:10.130Z,872
2017-06-17T05:23:50.645Z,2064
2017-06-17T05:24:31.069Z,2332
2017-06-17T05:25:11.617Z,3728
2017-06-17T05:25:52.084Z,6528
2017-06-17T05:26:33.054Z,12892
2017-06-17T05:27:13.543Z,15328
2017-06-17T05:27:54.018Z,12500
2017-06-17T05:28:34.517Z,5896
2017-06-17T05:29:15.033Z,1572
2017-06-17T05:29:55.515Z,1356
2017-06-17T05:30:36.020Z,1832
2017-06-17T05:31:16.526Z,1552
2017-06-17T05:31:57.039Z,1672
2017-06-17T05:32:37.570Z,1304
2017-06-17T05:33:18.006Z,1304
2017-06-17T05:33:58.527Z,1312
2017-06-17T05:34:39.017Z,1080
2017-06-17T05:35:19.513Z,968
2017-06-17T05:36:00.033Z,848
2017-06-17T05:36:40.491Z,908
2017-06-17T05:37:21.013Z,824
2017-06-17T05:38:01.513Z,788
2017-06-17T05:38:42.161Z,776
2017-06-17T05:39:22.654Z,760
2017-06-17T05:40:03.161Z,740
2017-06-17T05:40:43.661Z,728
2017-06-17T05:41:24.183Z,824
2017-06-17T05:42:04.663Z,1028
2017-06-17T05:42:45.152Z,936
2017-06-17T05:43:25.852Z,1944
2017-06-17T05:44:06.321Z,864
2017-06-17T05:44:46.862Z,2592
2017-06-17T05:45:27.399Z,700
2017-06-17T05:46:07.863Z,912
2017-06-17T05:46:48.399Z,932
2017-06-17T05:47:28.898Z,756
2017-06-17T05:48:09.418Z,740
2017-06-17T05:48:49.850Z,740
2017-06-17T05:49:30.364Z,756
2017-06-17T05:50:10.936Z,736
2017-06-17T05:50:51.933Z,740
2017-06-17T05:51:32.320Z,2344
2017-06-17T05:52:12.805Z,9216
2017-06-17T05:52:53.327Z,11792
2017-06-17T05:53:34.030Z,22752
2017-06-17T05:54:14.478Z,17376
2017-06-17T05:54:55.023Z,12432
2017-06-17T05:55:35.495Z,6008
2017-06-17T05:56:16.012Z,5984
2017-06-17T05:56:56.571Z,2044
2017-06-17T05:57:37.082Z,2092
2017-06-17T05:58:17.542Z,2132
2017-06-17T05:58:57.998Z,2428
2017-06-17T05:59:38.571Z,2704
2017-06-17T06:00:19.092Z,2928
2017-06-17T06:00:59.562Z,3044
2017-06-17T06:01:40.084Z,3088
2017-06-17T06:02:20.657Z,3076
2017-06-17T06:03:01.175Z,3052
2017-06-17T06:03:41.870Z,3052
2017-06-17T06:04:22.834Z,3048
2017-06-17T06:05:03.248Z,3044
2017-06-17T06:05:43.683Z,3024
2017-06-17T06:06:24.170Z,3016
2017-06-17T06:07:04.671Z,3024
2017-06-17T06:07:46.469Z,3020
2017-06-17T06:08:26.981Z,3028
2017-06-17T06:09:07.468Z,3036
2017-06-17T06:09:47.951Z,3044
2017-06-17T06:10:28.436Z,3048
2017-06-17T06:11:08.860Z,3064
2017-06-17T06:11:49.397Z,3068
2017-06-17T06:12:29.869Z,3092
2017-06-17T06:13:10.339Z,3104
2017-06-17T06:13:50.874Z,3156
2017-06-17T06:14:31.386Z,3340
2017-06-17T06:15:11.888Z,4356
2017-06-17T06:15:52.400Z,5516
2017-06-17T06:16:32.872Z,6984
2017-06-17T06:17:13.392Z,7624
2017-06-17T06:17:55.756Z,7816
2017-06-17T06:18:36.285Z,7796
2017-06-17T06:19:16.762Z,7448
2017-06-17T06:19:57.226Z,6632
2017-06-17T06:20:37.704Z,5340
2017-06-17T06:21:18.256Z,4060
2017-06-17T06:21:58.651Z,3476
2017-06-17T06:22:39.295Z,3208
2017-06-17T06:23:19.778Z,2988
2017-06-17T06:24:00.334Z,2964
2017-06-17T06:24:40.822Z,2944
2017-06-17T06:25:21.457Z,2936
2017-06-17T06:26:01.833Z,2928
2017-06-17T06:26:42.348Z,2928
2017-06-17T06:27:23.003Z,2912
2017-06-17T06:28:03.479Z,2904
2017-06-17T06:28:44.339Z,2888
2017-06-17T06:29:24.694Z,2880
2017-06-17T06:30:05.225Z,2844
2017-06-17T06:30:45.659Z,2828
2017-06-17T06:31:26.221Z,2848
2017-06-17T06:32:06.686Z,2844
2017-06-17T06:32:47.325Z,2852
2017-06-17T06:33:27.831Z,2844
2017-06-17T06:34:08.448Z,2820
2017-06-17T06:34:48.961Z,2808
2017-06-17T06:35:29.736Z,2764
2017-06-17T06:36:10.201Z,2752
2017-06-17T06:36:50.725Z,2744
2017-06-17T06:37:31.248Z,2696
2017-06-17T06:38:11.735Z,2656
2017-06-17T06:38:52.199Z,2648
2017-06-17T06:39:32.725Z,2640
2017-06-17T06:40:13.194Z,2576
2017-06-17T06:40:53.742Z,2800
2017-06-17T06:41:34.314Z,2816
2017-06-17T06:42:14.841Z,2796
2017-06-17T06:42:55.377Z,2776
2017-06-17T06:43:36.036Z,2760
2017-06-17T06:44:17.768Z,2736
2017-06-17T06:44:58.269Z,2732
2017-06-17T06:45:38.735Z,2720
2017-06-17T06:46:19.495Z,2712
2017-06-17T06:46:59.918Z,2700
2017-06-17T06:47:40.432Z,2672
2017-06-17T06:48:20.927Z,2660
2017-06-17T06:49:01.421Z,2656
2017-06-17T06:49:41.932Z,2676
2017-06-17T06:50:22.430Z,2700
2017-06-17T06:51:02.925Z,2736
2017-06-17T06:51:43.411Z,2736
2017-06-17T06:52:23.897Z,2744
2017-06-17T06:53:04.429Z,2732
2017-06-17T06:53:44.932Z,2712
2017-06-17T06:54:26.019Z,2716
2017-06-17T06:55:06.820Z,2732
2017-06-17T06:55:47.353Z,2708
2017-06-17T06:56:27.849Z,2696
2017-06-17T06:57:08.391Z,2676
2017-06-17T06:57:48.927Z,2672
2017-06-17T06:58:29.461Z,2660
2017-06-17T06:59:09.923Z,2680
2017-06-17T06:59:50.468Z,2652
2017-06-17T07:00:31.038Z,2656
2017-06-17T07:01:11.525Z,2640
2017-06-17T07:01:52.031Z,2628
2017-06-17T07:02:32.677Z,2640
2017-06-17T07:03:13.494Z,2672
2017-06-17T07:03:54.078Z,2664
2017-06-17T07:04:34.627Z,2636
2017-06-17T07:05:15.670Z,2568
2017-06-17T07:07:49.366Z,2584
2017-06-17T07:08:29.874Z,2624
2017-06-17T07:09:10.574Z,2604
2017-06-17T07:09:51.537Z,2572
2017-06-17T07:10:31.778Z,2560
2017-06-17T07:11:12.334Z,2560
2017-06-17T07:11:52.795Z,2560
2017-06-17T07:12:33.848Z,2568
2017-06-17T07:13:14.675Z,2572
2017-06-17T07:13:55.193Z,2552
2017-06-17T07:14:35.986Z,2548
2017-06-17T07:15:16.530Z,2548
2017-06-17T07:15:56.925Z,2564
2017-06-17T07:16:37.453Z,2560
2017-06-17T07:17:18.014Z,2500
2017-06-17T07:17:58.586Z,2484
2017-06-17T07:18:39.092Z,2564
2017-06-17T07:19:19.607Z,2588
2017-06-17T07:20:00.101Z,2572
2017-06-17T07:20:40.670Z,2548
2017-06-17T07:21:21.346Z,2544
2017-06-17T07:22:01.970Z,2516
2017-06-17T07:22:42.506Z,2476
2017-06-17T07:23:23.195Z,2476
2017-06-17T07:24:03.589Z,2448
2017-06-17T07:24:44.140Z,2476
2017-06-17T07:25:24.635Z,2476
2017-06-17T07:26:06.024Z,2468
2017-06-17T07:26:46.572Z,2484
2017-06-17T07:27:27.502Z,2480
2017-06-17T07:28:08.310Z,2448
2017-06-17T07:28:48.756Z,2504
2017-06-17T07:29:29.383Z,2492
2017-06-17T07:30:09.948Z,2500
2017-06-17T07:30:50.616Z,2508
2017-06-17T07:31:31.124Z,2460
2017-06-17T07:32:11.939Z,2468
2017-06-17T07:32:52.715Z,2464
2017-06-17T07:33:33.356Z,2444
2017-06-17T07:34:13.970Z,2424
2017-06-17T07:34:54.590Z,2440
2017-06-17T07:35:35.040Z,2416
2017-06-17T07:36:15.551Z,2416
2017-06-17T07:36:56.046Z,2376
2017-06-17T07:37:36.526Z,2376
2017-06-17T07:38:17.299Z,2376
2017-06-17T07:38:57.825Z,2404
2017-06-17T07:39:38.359Z,2404
2017-06-17T07:40:18.872Z,2376
2017-06-17T07:40:59.364Z,2380
2017-06-17T07:41:39.870Z,2388
2017-06-17T07:42:20.522Z,2384
2017-06-17T07:43:01.193Z,2428
2017-06-17T07:43:41.694Z,2404
2017-06-17T07:44:22.392Z,2380
2017-06-17T07:45:03.283Z,2384
2017-06-17T07:45:43.867Z,2396
2017-06-17T07:46:24.869Z,2380
2017-06-17T07:47:05.345Z,2344
2017-06-17T07:47:45.860Z,2328
2017-06-17T07:48:26.524Z,2304
2017-06-17T07:49:06.894Z,2304
2017-06-17T07:49:47.718Z,2268
2017-06-17T07:50:28.266Z,2280
2017-06-17T07:51:08.750Z,2212
2017-06-17T07:51:49.302Z,2212
2017-06-17T07:52:29.819Z,2220
2017-06-17T07:53:10.373Z,2216
2017-06-17T07:53:50.917Z,2092
2017-06-17T07:54:31.419Z,2180
2017-06-17T07:55:11.884Z,2128
2017-06-17T07:55:53.258Z,2216
2017-06-17T07:56:33.395Z,2124
2017-06-17T07:57:14.117Z,2156
2017-06-17T07:57:54.868Z,2124
2017-06-17T07:58:36.059Z,2100
2017-06-17T07:59:16.286Z,2068
2017-06-17T07:59:57.055Z,2076
2017-06-17T08:00:37.996Z,2068
2017-06-17T08:01:18.656Z,2060
2017-06-17T08:01:59.350Z,2060
2017-06-17T08:02:40.000Z,2024
2017-06-17T08:03:20.372Z,2000
2017-06-17T08:04:00.952Z,1988
2017-06-17T08:04:41.418Z,1980
2017-06-17T08:05:21.936Z,1952
2017-06-17T08:06:02.458Z,1344
2017-06-17T08:06:42.959Z,1800
2017-06-17T08:07:23.539Z,1916
2017-06-17T08:08:04.176Z,1864
2017-06-17T08:08:44.650Z,1896
2017-06-17T08:09:25.167Z,1872
2017-06-17T08:10:05.732Z,1672
2017-06-17T08:10:46.364Z,1848
2017-06-17T08:11:27.477Z,1848
2017-06-17T08:14:11.591Z,1808
2017-06-17T08:17:55.646Z,668
2017-06-17T08:18:36.135Z,620
2017-06-17T08:19:16.644Z,644
2017-06-17T08:19:57.259Z,672
2017-06-17T08:20:37.816Z,660
2017-06-17T08:21:18.317Z,616
2017-06-17T08:21:59.415Z,612
2017-06-17T08:22:40.056Z,656
2017-06-17T08:23:20.605Z,1684
2017-06-17T08:24:01.202Z,1672
2017-06-17T08:24:41.700Z,1656
2017-06-17T08:25:22.593Z,1624
2017-06-17T08:26:03.133Z,1584
2017-06-17T08:26:43.620Z,1468
2017-06-17T08:29:07.119Z,1420
2017-06-17T08:29:56.336Z,1444
2017-06-17T08:30:37.793Z,1100
2017-06-17T08:31:18.256Z,1464
2017-06-17T08:31:58.751Z,1376
2017-06-17T08:32:39.324Z,1600
2017-06-17T08:33:19.811Z,1620
2017-06-17T08:34:00.351Z,1692
2017-06-17T08:34:40.856Z,1624
2017-06-17T08:35:21.346Z,1472
2017-06-17T08:36:02.262Z,1688
2017-06-17T08:36:42.749Z,1556
2017-06-17T08:37:23.365Z,1532
2017-06-17T08:38:03.944Z,1496
2017-06-17T08:38:44.398Z,1484
2017-06-17T08:39:24.889Z,1476
2017-06-17T08:40:05.368Z,1460
2017-06-17T08:40:45.912Z,1428
2017-06-17T08:41:26.500Z,1384
2017-06-17T08:42:06.913Z,1352
2017-06-17T08:42:47.422Z,1308
2017-06-17T08:43:27.929Z,1288
2017-06-17T08:44:08.451Z,1264
2017-06-17T08:44:49.132Z,1220
2017-06-17T08:45:29.696Z,1204
2017-06-17T08:46:10.140Z,1220
2017-06-17T08:46:50.661Z,1228
2017-06-17T08:47:31.182Z,1280
2017-06-17T08:48:11.670Z,1300
2017-06-17T08:48:52.208Z,1284
2017-06-17T08:49:32.792Z,1268
2017-06-17T08:50:13.598Z,1260
2017-06-17T08:50:54.074Z,1256
2017-06-17T08:51:34.632Z,1244
2017-06-17T08:52:15.364Z,1252
2017-06-17T08:52:55.977Z,1260
2017-06-17T08:53:36.480Z,1272
2017-06-17T08:54:17.023Z,1300
2017-06-17T08:54:57.456Z,1288
2017-06-17T08:55:38.264Z,1332
2017-06-17T08:56:18.780Z,1336
2017-06-17T08:56:59.929Z,1336
2017-06-17T08:57:40.514Z,1352
2017-06-17T08:58:21.026Z,1352
2017-06-17T08:59:01.559Z,1384
2017-06-17T08:59:42.025Z,1400
2017-06-17T09:00:22.542Z,1428
2017-06-17T09:01:03.034Z,1440
2017-06-17T09:01:43.696Z,1436
2017-06-17T09:02:26.828Z,1432
2017-06-17T09:03:07.340Z,1428
2017-06-17T09:03:47.906Z,1420
2017-06-17T09:04:28.418Z,1420
2017-06-17T09:05:08.904Z,1432
2017-06-17T09:05:49.678Z,1468
2017-06-17T09:06:30.242Z,1496
2017-06-17T09:07:10.871Z,1536
2017-06-17T09:07:51.479Z,1540
2017-06-17T09:08:38.920Z,1536
2017-06-17T09:09:19.447Z,1500
2017-06-17T09:09:59.896Z,1484
2017-06-17T09:10:40.406Z,1468
2017-06-17T09:11:20.941Z,1464
2017-06-17T09:12:01.421Z,1440
2017-06-17T09:12:42.155Z,1424
2017-06-17T09:13:22.647Z,1412
2017-06-17T09:14:03.117Z,1372
2017-06-17T09:14:44.461Z,1400
2017-06-17T09:15:24.993Z,1400
2017-06-17T09:16:05.685Z,1392
2017-06-17T09:16:46.173Z,1348
2017-06-17T09:17:26.715Z,1336
2017-06-17T09:18:07.225Z,1316
2017-06-17T09:18:47.651Z,1276
2017-06-17T09:19:33.910Z,1200
2017-06-17T09:20:14.236Z,1164
2017-06-17T09:20:54.716Z,1140
2017-06-17T09:21:35.276Z,1152
2017-06-17T09:22:15.796Z,1140
2017-06-17T09:22:56.396Z,1148
2017-06-17T09:23:36.954Z,1116
2017-06-17T09:25:35.285Z,1128
2017-06-17T09:26:15.723Z,1124
2017-06-17T09:26:56.796Z,1004
2017-06-17T09:27:37.737Z,1032
2017-06-17T09:29:35.912Z,1072
2017-06-17T09:30:16.410Z,1080
2017-06-17T09:30:56.917Z,1196
2017-06-17T09:31:37.423Z,980
2017-06-17T09:32:17.905Z,1132
2017-06-17T09:32:58.410Z,1088
2017-06-17T09:33:38.945Z,1088
2017-06-17T09:34:19.477Z,1020
2017-06-17T09:35:00.021Z,1060
2017-06-17T09:35:40.503Z,1068
2017-06-17T09:36:21.794Z,1056